• Join FlightAware (Why Join?)
  • Login
  • US Flag 
04:03AM EDT


 

Airport Tracker/Info


-or-


 

Live Flight TrackerFlight Track Log ✈ UAL1423 ✈ 18-Sep-2013 ✈ KIAH - KLAS

Flight Track Log - Related Links

Times and Time Zones

All times are in EDT time to prevent confusion due to time zone crossing. See the UAL1423 flight status page for this flight to view local times or setup timezone preferences in your user account.

Time Position Orientation Groundspeed Altitude Reporting Facility
EDT Latitude Longitude Course Direction KTS MPH feet Rate Location/Type
03:47PM 29.9522 -95.3419 161° South 175 201 1,100  Level FlightAware ADS-B
03:47PM 29.9480 -95.3421 182° South 180 207 1,200 1,320 Climbing FlightAware ADS-B
03:47PM 29.9454 -95.3427 191° South 183 211 1,300 1,200 Climbing FlightAware ADS-B
03:47PM 29.9430 -95.3436 198° South 188 216 1,300  Level FlightAware ADS-B
03:47PM 29.9422 -95.3440 202° Southwest 190 219 1,300 960 Level FlightAware ADS-B
03:47PM 29.9387 -95.3463 210° Southwest 197 227 1,400 1,500 Climbing FlightAware ADS-B
03:47PM 29.9355 -95.3491 217° Southwest 205 236 1,500 1,080 Climbing FlightAware ADS-B
03:48PM 29.9311 -95.3542 225° Southwest 216 249 1,600 1,200 Climbing FlightAware ADS-B
03:48PM 29.9287 -95.3573 228° Southwest 227 261 1,700 900 Climbing FlightAware ADS-B
03:48PM 29.9167 -95.3742 231° Southwest 252 290 1,900 900 Climbing FlightAware ADS-B
03:48PM 29.9141 -95.3780 232° Southwest 255 293 2,000 3,000 Climbing FlightAware ADS-B
03:48PM 29.9049 -95.3919 233° Southwest 254 292 2,700 3,300 Climbing FlightAware ADS-B
03:48PM 29.8994 -95.4004 234° Southwest 251 289 3,100 2,700 Climbing FlightAware ADS-B
03:48PM 29.8978 -95.4030 234° Southwest 249 287 3,200 2,640 Climbing FlightAware ADS-B
03:48PM 29.8943 -95.4098 239° Southwest 248 285 3,500 3,000 Climbing FlightAware ADS-B
03:48PM 29.8928 -95.4135 245° Southwest 252 290 3,600 1,980 Climbing FlightAware ADS-B
03:49PM 29.8915 -95.4173 248° West 257 296 3,700 1,980 Climbing FlightAware ADS-B
03:49PM 29.8904 -95.4215 253° West 262 302 3,800 720 Climbing FlightAware ADS-B
03:49PM 29.8893 -95.4272 257° West 267 307 3,800 2,220 Level FlightAware ADS-B
03:49PM 29.8897 -95.4251 79° East 276 318 4,100 2,520 Climbing FlightAware ADS-B
03:49PM 29.8888 -95.4382 266° West 276 318 4,100 1,860 Level FlightAware ADS-B
03:49PM 29.8911 -95.4553 279° West 281 323 4,600 2,640 Climbing FlightAware ADS-B
03:49PM 29.8975 -95.4781 288° West 287 330 5,300 3,060 Climbing FlightAware ADS-B
03:49PM 29.9039 -95.5004 288° West 282 325 6,200 3,240 Climbing FlightAware ADS-B
03:50PM 29.9098 -95.5216 288° West 279 321 7,000 3,000 Climbing FlightAware ADS-B
03:50PM 29.9133 -95.5349 287° West 283 326 7,400 2,460 Climbing FlightAware ADS-B
03:50PM 29.9166 -95.5478 286° West 290 334 7,700 1,860 Climbing FlightAware ADS-B
03:50PM 29.9192 -95.5577 287° West 292 336 7,900 2,340 Climbing FlightAware ADS-B
03:50PM 29.9262 -95.5805 290° West 292 336 8,600 3,060 Climbing FlightAware ADS-B
03:51PM 29.9324 -95.6009 289° West 284 327 9,400 2,400 Climbing FlightAware ADS-B
03:51PM 29.9390 -95.6242 288° West 300 345 9,800 1,380 Climbing FlightAware ADS-B
03:51PM 29.9431 -95.6396 287° West 311 358 10,000 1,020 Climbing FlightAware ADS-B
03:52PM 29.9558 -95.6912 286° West 343 395 10,500 1,560 Climbing FlightAware ADS-B
03:52PM 29.9699 -95.7461 287° West 356 410 11,600 2,340 Climbing FlightAware ADS-B
03:53PM 29.9844 -95.8016 287° West 359 413 12,900 2,400 Climbing FlightAware ADS-B
03:53PM 29.9997 -95.8599 287° West 365 420 14,100 1,980 Climbing FlightAware ADS-B
03:54PM 30.0146 -95.9171 287° West 375 432 15,000 1,980 Climbing FlightAware ADS-B
03:54PM 30.0298 -95.9757 287° West 380 437 16,100 2,160 Climbing FlightAware ADS-B
03:55PM 30.0450 -96.0344 287° West 382 440 17,200 2,100 Climbing FlightAware ADS-B
03:55PM 30.0603 -96.0934 287° West 386 444 18,200 1,860 Climbing FlightAware ADS-B
03:56PM 30.0760 -96.1541 287° West 392 451 19,100 1,740 Climbing FlightAware ADS-B
03:56PM 30.0915 -96.2147 286° West 395 455 20,000 1,800 Climbing FlightAware ADS-B
03:56PM 30.0991 -96.2482 285° West 396 456 20,500 1,740 Climbing FlightAware ADS-B
03:57PM 30.1091 -96.3126 280° West 398 458 21,400 1,620 Climbing FlightAware ADS-B
03:57PM 30.1187 -96.3759 280° West 402 463 22,200 1,560 Climbing FlightAware ADS-B
03:58PM 30.1288 -96.4411 280° West 407 468 23,000 1,440 Climbing FlightAware ADS-B
03:58PM 30.1387 -96.5055 280° West 410 472 23,700 1,380 Climbing FlightAware ADS-B
03:59PM 30.1485 -96.5705 280° West 415 478 24,400 1,260 Climbing FlightAware ADS-B
03:59PM 30.1585 -96.6369 280° West 420 483 25,000 1,140 Climbing FlightAware ADS-B
04:00PM 30.1686 -96.7046 280° West 424 488 25,600 1,260 Climbing FlightAware ADS-B
04:00PM 30.1787 -96.7718 280° West 425 489 26,300 1,260 Climbing FlightAware ADS-B
04:01PM 30.1889 -96.8396 280° West 428 493 26,900 1,080 Climbing FlightAware ADS-B
04:01PM 30.1990 -96.9075 280° West 431 496 27,400 960 Climbing FlightAware ADS-B
04:02PM 30.2092 -96.9759 280° West 434 499 27,900 1,080 Climbing FlightAware ADS-B
04:02PM 30.2196 -97.0464 280° West 437 503 28,500 1,020 Climbing FlightAware ADS-B
04:03PM 30.2301 -97.1186 280° West 439 505 29,000 1,020 Climbing FlightAware ADS-B
04:03PM 30.2406 -97.1898 280° West 439 505 29,600 1,080 Climbing FlightAware ADS-B
04:04PM 30.2508 -97.2593 280° West 439 505 30,100 1,080 Climbing FlightAware ADS-B
04:04PM 30.2610 -97.3292 280° West 439 505 30,700 1,200 Climbing FlightAware ADS-B
04:05PM 30.2718 -97.4029 280° West 434 499 31,400 1,200 Climbing FlightAware ADS-B
04:05PM 30.2761 -97.4326 280° West 434 499 31,600 720 Climbing FlightAware ADS-B
04:06PM 30.2826 -97.4775 280° West 434 499 31,800 720 Climbing FlightAware ADS-B
04:06PM 30.2926 -97.5468 280° West 438 504 32,200 720 Climbing FlightAware ADS-B
04:06PM 30.2932 -97.5512 279° West 434 499 32,200 720 Level FlightAware ADS-B
04:07PM 30.3027 -97.6177 279° West 438 504 32,600 900 Climbing FlightAware ADS-B
04:07PM 30.3041 -97.6271 280° West 438 504 32,700 1,020 Climbing FlightAware ADS-B
04:07PM 30.3140 -97.6969 279° West 437 503 33,200 960 Climbing FlightAware ADS-B
04:08PM 30.3277 -97.7654 283° West 435 501 33,700 780 Climbing FlightAware ADS-B
04:08PM 30.3422 -97.8340 284° West 433 498 34,000 240 Climbing FlightAware ADS-B
04:09PM 30.3607 -97.9214 284° West 433 498 34,000  Level FlightAware ADS-B
04:09PM 30.3756 -97.9927 284° West 432 497 34,000  Level FlightAware ADS-B
04:10PM 30.3940 -98.0808 284° West 432 497 34,000  Level FlightAware ADS-B
04:11PM 30.4083 -98.1499 284° West 431 496 34,000  Level FlightAware ADS-B
04:11PM 30.4224 -98.2182 283° West 431 496 34,000  Level FlightAware ADS-B
04:12PM 30.4419 -98.3129 283° West 431 496 34,000  Level FlightAware ADS-B
04:13PM 30.4690 -98.4460 283° West 429 494 34,000  Level FlightAware
04:13PM 30.4726 -98.4618 285° West 430 495 34,000  Level FlightAware ADS-B
04:13PM 30.4872 -98.5335 283° West 429 494 34,000  Level FlightAware ADS-B
04:14PM 30.5010 -98.5990 284° West 428 493 34,000  Level FlightAware
04:14PM 30.5170 -98.6810 283° West 428 493 34,000  Level FlightAware
04:15PM 30.5330 -98.7580 284° West 428 493 34,000  Level FlightAware
04:16PM 30.5480 -98.8310 283° West 428 493 34,000  Level FlightAware
04:16PM 30.5640 -98.9110 283° West 428 493 34,000  Level FlightAware
04:17PM 30.5780 -98.9820 283° West 427 491 34,000  Level FlightAware
04:17PM 30.5970 -99.0770 283° West 427 491 34,000  Level FlightAware
04:18PM 30.6110 -99.1470 283° West 427 491 34,000  Level FlightAware
04:19PM 30.6270 -99.2290 283° West 426 490 34,000  Level FlightAware
04:19PM 30.6420 -99.3060 283° West 426 490 34,000  Level FlightAware
04:20PM 30.6570 -99.3810 283° West 426 490 34,000  Level FlightAware
04:20PM 30.6730 -99.4600 283° West 426 490 34,000  Level FlightAware
04:21PM 30.6880 -99.5390 282° West 426 490 34,000  Level FlightAware
04:22PM 30.7040 -99.6200 283° West 428 493 34,000  Level FlightAware
04:22PM 30.7200 -99.7010 283° West 428 493 34,000  Level FlightAware
04:23PM 30.7340 -99.7740 283° West 428 493 34,000  Level FlightAware
04:23PM 30.7500 -99.8580 283° West 429 494 34,000  Level FlightAware
04:24PM 30.7640 -99.9310 283° West 429 494 34,000  Level FlightAware
04:24PM 30.7800 -100.0140 283° West 429 494 34,000  Level FlightAware
04:25PM 30.7950 -100.0910 283° West 430 495 34,000  Level FlightAware
04:26PM 30.8090 -100.1670 282° West 430 495 34,000  Level FlightAware
04:26PM 30.8250 -100.2490 283° West 428 493 34,000  Level FlightAware
04:27PM 30.8400 -100.3310 282° West 426 490 34,000  Level FlightAware
04:27PM 30.8540 -100.4020 283° West 425 489 34,000  Level FlightAware
04:28PM 30.8700 -100.4910 282° West 426 490 34,000  Level FlightAware
04:28PM 30.8840 -100.5620 283° West 426 490 34,000  Level FlightAware
04:29PM 30.8990 -100.6420 282° West 425 489 34,000  Level FlightAware
04:30PM 30.9140 -100.7250 282° West 426 490 34,000  Level FlightAware
04:30PM 30.9270 -100.7960 282° West 427 491 34,000  Level FlightAware
04:31PM 30.9420 -100.8760 282° West 427 491 34,000  Level FlightAware
04:31PM 30.9560 -100.9520 282° West 427 491 34,000  Level FlightAware
04:32PM 30.9710 -101.0320 282° West 426 490 34,000  Level FlightAware
04:33PM 30.9850 -101.1130 281° West 426 490 34,000  Level FlightAware
04:33PM 31.0000 -101.1960 282° West 426 490 34,000  Level FlightAware
04:34PM 31.0130 -101.2650 282° West 425 489 34,000  Level FlightAware
04:34PM 31.0280 -101.3470 282° West 424 488 34,000  Level FlightAware
04:35PM 31.0420 -101.4280 281° West 422 486 34,000  Level FlightAware
04:36PM 31.0560 -101.5060 282° West 422 486 34,000  Level FlightAware
04:36PM 31.0690 -101.5790 282° West 421 484 34,000  Level FlightAware
04:37PM 31.0840 -101.6590 282° West 420 483 34,000  Level FlightAware
04:37PM 31.0980 -101.7390 282° West 419 482 34,000  Level FlightAware
04:38PM 31.1110 -101.8130 282° West 420 483 34,000  Level FlightAware
04:39PM 31.1270 -101.9060 281° West 422 486 34,000  Level FlightAware
04:39PM 31.1410 -101.9860 282° West 425 489 34,000  Level FlightAware
04:40PM 31.1550 -102.0670 281° West 425 489 34,000  Level FlightAware
04:40PM 31.1700 -102.1480 282° West 426 490 34,000  Level FlightAware
04:41PM 31.1880 -102.2570 281° West 426 490 34,000  Level FlightAware
04:42PM 31.1990 -102.3260 281° West 426 490 34,000  Level FlightAware
04:42PM 31.2110 -102.3950 282° West 426 490 34,000  Level FlightAware
04:43PM 31.2230 -102.4660 281° West 426 490 34,000  Level FlightAware
04:44PM 31.2440 -102.5830 282° West 428 493 34,000  Level FlightAware
04:44PM 31.2590 -102.6720 281° West 428 493 34,000  Level FlightAware
04:45PM 31.2700 -102.7410 281° West 428 493 34,000  Level FlightAware
04:46PM 31.2820 -102.8130 281° West 428 493 34,000  Level FlightAware
04:46PM 31.2930 -102.8780 281° West 428 493 34,000  Level FlightAware
04:47PM 31.3050 -102.9520 281° West 428 493 34,000  Level FlightAware
04:47PM 31.3170 -103.0230 281° West 428 493 34,000  Level FlightAware
04:48PM 31.3290 -103.0950 281° West 428 493 34,000  Level FlightAware
04:49PM 31.3410 -103.1650 281° West 428 493 34,000  Level FlightAware
04:49PM 31.3520 -103.2340 281° West 428 493 34,000  Level FlightAware
04:50PM 31.3640 -103.3040 281° West 428 493 34,000  Level FlightAware
04:50PM 31.3750 -103.3740 280° West 428 493 34,000  Level FlightAware
04:51PM 31.3870 -103.4450 281° West 428 493 34,000  Level FlightAware
04:52PM 31.3990 -103.5150 281° West 428 493 34,000  Level FlightAware
04:52PM 31.4100 -103.5850 280° West 428 493 34,000  Level FlightAware
04:53PM 31.4220 -103.6540 282° West 428 493 34,000  Level FlightAware
04:57PM 31.5600 -104.4430 282° West 426 490 34,000  Level FlightAware
04:58PM 31.5840 -104.5210 290° West 426 490 34,000  Level FlightAware
04:58PM 31.6060 -104.5940 290° West 425 489 34,000  Level FlightAware
04:59PM 31.6300 -104.6720 290° West 423 487 34,000  Level FlightAware
05:00PM 31.6570 -104.7620 289° West 422 486 34,000  Level FlightAware
05:00PM 31.6850 -104.8560 289° West 422 486 34,000  Level FlightAware
05:01PM 31.7050 -104.9250 289° West 422 486 34,000  Level FlightAware
05:02PM 31.7300 -105.0050 290° West 420 483 34,000  Level FlightAware
05:02PM 31.7500 -105.0710 290° West 420 483 34,000  Level FlightAware
05:03PM 31.7700 -105.1410 289° West 420 483 34,000  Level FlightAware
05:03PM 31.7900 -105.2070 290° West 420 483 34,000  Level FlightAware
05:04PM 31.8090 -105.2730 289° West 420 483 34,000  Level FlightAware
05:05PM 31.8280 -105.3390 289° West 420 483 34,000  Level FlightAware
05:05PM 31.8480 -105.4060 289° West 420 483 34,000  Level FlightAware
05:06PM 31.8670 -105.4720 289° West 420 483 34,000  Level FlightAware
05:06PM 31.8860 -105.5380 289° West 420 483 34,000  Level FlightAware
05:07PM 31.9060 -105.6040 290° West 420 483 34,000  Level FlightAware
05:08PM 31.9250 -105.6710 288° West 420 483 34,000  Level FlightAware
05:08PM 31.9440 -105.7370 289° West 420 483 34,000  Level FlightAware
05:09PM 31.9640 -105.8030 290° West 420 483 34,000  Level FlightAware
05:09PM 31.9840 -105.8710 289° West 420 483 34,000  Level FlightAware
05:10PM 32.0560 -106.1030 290° West 426 490 34,000  Level FlightAware
05:11PM 32.0740 -106.1680 288° West 426 490 34,000  Level FlightAware
05:11PM 32.0940 -106.2340 290° West 424 488 34,000  Level FlightAware
05:12PM 32.1180 -106.3200 288° West 423 487 34,000  Level FlightAware
05:12PM 32.1410 -106.3970 289° West 423 487 34,000  Level FlightAware
05:13PM 32.1630 -106.4740 289° West 423 487 34,000  Level FlightAware
05:14PM 32.1870 -106.5600 288° West 422 486 34,000  Level FlightAware
05:14PM 32.2120 -106.6470 289° West 423 487 34,000  Level FlightAware
05:15PM 32.2300 -106.7090 289° West 423 487 34,000  Level FlightAware
05:15PM 32.2530 -106.7890 289° West 424 488 34,000  Level FlightAware
05:16PM 32.2790 -106.8760 289° West 425 489 34,000  Level FlightAware
05:16PM 32.3050 -106.9260 302° West 434 499 34,000  Level FlightAware
05:17PM 32.3510 -106.9890 311° West 437 503 34,000  Level FlightAware
05:18PM 32.3950 -107.0470 312° West 437 503 34,000 300 Level FlightAware
05:18PM 32.4420 -107.1100 311° West 440 506 34,400 1,020 Climbing FlightAware
05:19PM 32.4910 -107.1760 311° West 433 498 35,200 780 Climbing FlightAware
05:20PM 32.5520 -107.2570 312° West 430 495 35,600 240 Climbing FlightAware
05:20PM 32.5920 -107.3120 311° West 430 495 35,600  Level FlightAware
05:21PM 32.6330 -107.3680 311° West 430 495 35,600  Level FlightAware
05:21PM 32.6730 -107.4230 311° West 430 495 35,600  Level FlightAware
05:22PM 32.7130 -107.4770 311° West 430 495 35,600  Level FlightAware
05:23PM 32.7540 -107.5330 311° West 430 495 35,600  Level FlightAware
05:23PM 32.7960 -107.5910 311° West 430 495 35,600  Level FlightAware
05:24PM 32.8350 -107.6440 311° West 430 495 35,600  Level FlightAware
05:24PM 32.8770 -107.7020 311° West 430 495 35,600  Level FlightAware
05:25PM 32.9170 -107.7570 311° West 430 495 35,600  Level FlightAware
05:26PM 32.9570 -107.8110 311° West 430 495 35,600  Level FlightAware
05:26PM 32.9970 -107.8660 311° West 430 495 35,600  Level FlightAware
05:27PM 33.0360 -107.9210 310° West 430 495 35,600  Level FlightAware
05:27PM 33.0760 -107.9760 311° West 430 495 35,600  Level FlightAware
05:28PM 33.1160 -108.0310 311° West 430 495 35,600  Level FlightAware
05:29PM 33.1570 -108.0870 311° West 430 495 35,600 240 Level FlightAware
05:30PM 33.0831 -108.4672 311° West 421 484 36,000 180 Climbing Albuquerque Center
05:31PM 33.1381 -108.5906 298° West 423 487 36,000  Level Albuquerque Center
05:32PM 33.2144 -108.6983 310° West 438 504 36,000  Level Albuquerque Center
05:33PM 33.3131 -108.7836 324° Northwest 442 509 36,000  Level Albuquerque Center
05:34PM 33.4208 -108.8533 332° Northwest 443 510 36,000  Level Albuquerque Center
05:35PM 33.5572 -108.9247 336° Northwest 446 513 36,000  Level Albuquerque Center
05:36PM 33.6711 -108.9850 336° Northwest 448 516 36,000  Level Albuquerque Center
05:37PM 33.7897 -109.0347 341° North 454 522 36,000  Level Albuquerque Center
05:42PM 34.2430 -109.5190 341° North 36,000  Level FlightAware
05:45PM 34.3910 -109.8640 298° West 422 486 36,000  Level FlightAware
05:45PM 34.4240 -109.9400 298° West 422 486 36,000  Level FlightAware
05:46PM 34.4580 -110.0200 297° West 421 484 36,000  Level FlightAware
05:47PM 34.4870 -110.0870 298° West 422 486 36,000  Level FlightAware
05:47PM 34.5160 -110.1540 298° West 422 486 36,000  Level FlightAware
05:48PM 34.5510 -110.2380 297° West 422 486 36,000  Level FlightAware
05:48PM 34.5800 -110.3070 297° West 422 486 36,000  Level FlightAware
05:49PM 34.6120 -110.3810 298° West 422 486 36,000  Level FlightAware
05:49PM 34.6410 -110.4510 297° West 420 483 36,000  Level FlightAware
05:50PM 34.6730 -110.5280 297° West 419 482 36,000  Level FlightAware
05:51PM 34.7050 -110.6040 297° West 419 482 36,000  Level FlightAware
05:51PM 34.7330 -110.6700 297° West 419 482 36,000  Level FlightAware
05:52PM 34.7640 -110.7450 297° West 420 483 36,000  Level FlightAware
05:52PM 34.7970 -110.8220 298° West 419 482 36,000  Level FlightAware
05:53PM 34.8280 -110.8970 297° West 419 482 36,000  Level FlightAware
05:54PM 34.8580 -110.9690 297° West 416 479 36,000  Level FlightAware
05:54PM 34.8840 -111.0390 294° West 413 475 36,000  Level FlightAware
05:55PM 34.9100 -111.1240 290° West 411 473 36,000  Level FlightAware
05:55PM 34.9330 -111.1990 291° West 408 470 36,000  Level FlightAware
05:56PM 34.9550 -111.2700 291° West 411 473 36,000 -180 Level FlightAware
05:56PM 34.9790 -111.3490 290° West 414 476 35,800 -720 Descending FlightAware
05:57PM 35.0020 -111.4260 290° West 421 484 35,200 -1,020 Descending FlightAware
05:58PM 35.0250 -111.4990 291° West 427 491 34,700 -960 Descending FlightAware
05:58PM 35.0480 -111.5770 290° West 431 496 34,200 -1,080 Descending FlightAware
05:59PM 35.0710 -111.6510 291° West 435 501 33,500 -2,280 Descending FlightAware
05:59PM 35.0940 -111.7290 290° West 441 507 31,700 -3,000 Descending FlightAware
06:00PM 35.1200 -111.8130 291° West 445 512 30,100 -1,440 Descending FlightAware
06:00PM 35.1450 -111.8970 290° West 443 510 30,000 -120 Descending FlightAware
06:01PM 35.1680 -111.9740 290° West 441 507 30,000  Level FlightAware
06:02PM 35.1930 -112.0570 290° West 438 504 30,000  Level FlightAware
06:02PM 35.2180 -112.1410 290° West 438 504 30,000  Level FlightAware
06:03PM 35.2420 -112.2230 290° West 438 504 30,000 -300 Level FlightAware
06:03PM 35.2670 -112.3070 290° West 431 496 29,700 -840 Descending FlightAware
06:04PM 35.2890 -112.3800 290° West 423 487 29,100 -1,140 Descending FlightAware
06:04PM 35.3110 -112.4550 290° West 417 480 28,500 -1,080 Descending FlightAware
06:05PM 35.3340 -112.5350 289° West 409 471 27,900 -1,020 Descending FlightAware
06:06PM 35.3570 -112.6130 290° West 402 463 27,300 -1,020 Descending FlightAware
06:06PM 35.3790 -112.6880 290° West 397 457 26,700 -1,020 Descending FlightAware
06:07PM 35.4010 -112.7650 289° West 391 450 26,100 -1,080 Descending FlightAware
06:07PM 35.4200 -112.8310 289° West 386 444 25,500 -1,080 Descending FlightAware
06:08PM 35.4420 -112.9050 290° West 379 436 24,900 -1,020 Descending FlightAware
06:09PM 35.4620 -112.9760 289° West 376 433 24,300 -1,020 Descending FlightAware
06:09PM 35.4830 -113.0490 289° West 377 434 23,700 -1,020 Descending FlightAware
06:10PM 35.5010 -113.1090 290° West 375 432 23,200 -1,020 Descending FlightAware
06:10PM 35.5220 -113.1850 289° West 373 429 22,600 -1,080 Descending FlightAware
06:11PM 35.5440 -113.2610 290° West 371 427 21,900 -1,080 Descending FlightAware
06:12PM 35.5620 -113.3220 290° West 370 426 21,400 -1,020 Descending FlightAware
06:12PM 35.5820 -113.3950 289° West 370 426 20,800 -1,080 Descending FlightAware
06:13PM 35.6010 -113.4620 289° West 371 427 20,200 -720 Descending FlightAware
06:13PM 35.6200 -113.5280 290° West 373 429 20,000 -540 Descending FlightAware
06:14PM 35.6330 -113.6030 282° West 367 422 19,600 -780 Descending FlightAware
06:14PM 35.6430 -113.6730 280° West 365 420 19,100 -1,020 Descending FlightAware
06:15PM 35.6530 -113.7440 280° West 363 418 18,500 -1,020 Descending FlightAware
06:16PM 35.6640 -113.8190 280° West 360 414 17,900 -1,080 Descending FlightAware
06:16PM 35.6740 -113.8920 280° West 353 406 17,200 -1,020 Descending FlightAware
06:17PM 35.6830 -113.9560 280° West 351 404 16,700 -1,020 Descending FlightAware
06:17PM 35.6930 -114.0230 280° West 346 398 16,100 -1,140 Descending FlightAware
06:18PM 35.7020 -114.0920 279° West 354 407 15,500 -1,260 Descending FlightAware
06:18PM 35.7120 -114.1600 280° West 350 403 14,700 -1,680 Descending FlightAware
06:19PM 35.7210 -114.2290 279° West 345 397 13,600 -1,860 Descending FlightAware
06:20PM 35.7310 -114.2990 280° West 338 389 12,500 -1,200 Descending FlightAware
06:20PM 35.7400 -114.3600 280° West 309 356 12,200 -420 Descending FlightAware
06:20PM 35.7460 -114.3730 300° West 309 356 12,200  Level FlightAware
06:21PM 35.7560 -114.3860 313° West 312 359 12,200  Level FlightAware
06:21PM 35.7690 -114.3960 328° Northwest 318 366 12,200 -180 Level FlightAware
06:21PM 35.8110 -114.4210 334° Northwest 309 356 12,100 -840 Descending FlightAware
06:22PM 35.8310 -114.4420 320° Northwest 311 358 11,500 -1,620 Descending FlightAware
06:22PM 35.8680 -114.4850 317° Northwest 304 350 10,700 -1,320 Descending FlightAware
06:23PM 35.9010 -114.5230 317° Northwest 297 342 10,000 -1,320 Descending FlightAware
06:23PM 35.9230 -114.5490 316° Northwest 294 338 9,500 -1,440 Descending FlightAware
06:23PM 35.9440 -114.5740 316° Northwest 292 336 9,000 -1,320 Descending FlightAware
06:24PM 35.9580 -114.5900 317° Northwest 289 333 8,700 -1,020 Descending FlightAware
06:24PM 35.9790 -114.6160 315° West 281 323 8,400 -840 Descending FlightAware
06:24PM 35.9930 -114.6320 317° Northwest 273 314 8,200 -300 Descending FlightAware
06:25PM 36.0160 -114.6600 315° West 260 299 8,200  Level FlightAware
06:25PM 36.0320 -114.6790 316° Northwest 251 289 8,200  Level FlightAware
06:25PM 36.0510 -114.7010 317° Northwest 248 285 8,200  Level FlightAware
06:26PM 36.0650 -114.7190 314° West 246 283 8,200 -240 Level FlightAware
06:26PM 36.0690 -114.7290 296° West 244 281 8,100 -1,380 Descending FlightAware
06:26PM 36.0710 -114.7410 282° West 242 278 7,800 -1,440 Descending FlightAware
06:26PM 36.0730 -114.7660 276° West 237 273 7,500 -1,080 Descending FlightAware
06:27PM 36.0730 -114.7880 270° West 231 266 7,200 -540 Descending FlightAware
06:27PM 36.0740 -114.8120 273° West 230 265 7,200 -900 Level FlightAware
06:27PM 36.0730 -114.8490 268° West 230 265 6,500 -1,500 Descending FlightAware
06:28PM 36.0740 -114.8690 274° West 222 255 6,100 -1,200 Descending FlightAware
06:28PM 36.0730 -114.9120 268° West 197 227 5,500 -1,020 Descending FlightAware
06:29PM 36.0740 -114.9340 273° West 187 215 5,200 -900 Descending FlightAware
06:29PM 36.0740 -114.9570 270° West 187 215 4,900 -1,080 Descending FlightAware
06:30PM 36.0740 -114.9950 270° West 184 212 4,200 -1,140 Descending FlightAware
06:30PM 36.0740 -115.0140 270° West 186 214 3,900 -780 Descending FlightAware
06:30PM 36.0740 -115.0280 270° West 181 208 3,800 -900 Descending FlightAware
06:30PM 36.0740 -115.0480 270° West 166 191 3,400 -1,020 Descending FlightAware
06:31PM 36.0740 -115.0620 270° West 160 184 3,200 -900 Descending FlightAware
06:31PM 36.0740 -115.0800 270° West 160 184 2,900 -780 Descending FlightAware
06:31PM 36.0740 -115.0990 270° West 159 183 2,700 -720 Descending FlightAware
06:32PM 36.0740 -115.1210 270° West 164 189 2,400 -360 Descending FlightAware
06:32PM 36.0740 -115.1410 270° West 164 189 2,400  Level FlightAware